Time;durP1;ratioP1;P1;durP2;ratioP2;P2;SDS_P1;SDS_P2;PMS_P1;PMS_P2;Temp;Humidity;BMP_temperature;BMP_pressure;BME280_temperature;BME280_humidity;BME280_pressure;Samples;Min_cycle;Max_cycle;Signal;HPM_P1;HPM_P2
2022/03/17 00:02:05;;;;;;;9.48;6.82;;;7.30;99.90;;;;;;4937366;29;20106;-72
2022/03/17 00:04:32;;;;;;;7.55;5.70;;;7.30;99.90;;;;;;4954616;29;20566;-72
2022/03/17 00:07:00;;;;;;;8.75;6.90;;;7.30;99.90;;;;;;4953665;29;20051;-72
2022/03/17 00:09:27;;;;;;;13.00;7.47;;;7.30;99.90;;;;;;4954524;28;20051;-72
2022/03/17 00:11:54;;;;;;;11.13;7.05;;;7.20;99.90;;;;;;4953703;29;20406;-72
2022/03/17 00:14:21;;;;;;;8.75;6.55;;;7.20;99.90;;;;;;4954900;28;20106;-72
2022/03/17 00:16:48;;;;;;;8.85;6.93;;;7.20;99.90;;;;;;4953133;29;20059;-72
2022/03/17 00:19:15;;;;;;;11.68;7.55;;;7.10;99.90;;;;;;4953138;29;20055;-72
2022/03/17 00:21:42;;;;;;;12.18;7.80;;;7.10;99.90;;;;;;4953233;29;20047;-71
2022/03/17 00:24:09;;;;;;;9.73;7.05;;;7.00;99.90;;;;;;4966361;28;20063;-72
2022/03/17 00:26:36;;;;;;;10.25;6.18;;;7.00;99.90;;;;;;4962450;28;20071;-72
2022/03/17 00:29:07;;;;;;;9.00;6.55;;;7.00;99.90;;;;;;4937752;29;20062;-72
2022/03/17 00:31:37;;;;;;;8.93;6.05;;;7.00;99.90;;;;;;4952870;29;20606;-72
2022/03/17 00:34:08;;;;;;;9.48;6.82;;;6.90;99.90;;;;;;4954300;29;20047;-73
2022/03/17 00:36:34;;;;;;;;;;;7.00;99.90;;;;;;4954184;28;20513;-72
2022/03/17 00:39:04;;;;;;;10.23;6.07;;;6.90;99.90;;;;;;4954395;29;19937;-72
2022/03/17 00:41:32;;;;;;;14.70;8.65;;;6.90;99.90;;;;;;4954136;28;20684;-72
2022/03/17 00:43:59;;;;;;;9.48;6.32;;;6.90;99.90;;;;;;4952128;29;20501;-72
2022/03/17 00:46:26;;;;;;;7.97;5.72;;;6.90;99.90;;;;;;4968887;28;20066;-72
2022/03/17 00:48:54;;;;;;;8.93;5.95;;;6.90;99.90;;;;;;4954272;29;20136;-72
2022/03/17 00:51:21;;;;;;;7.68;6.78;;;6.90;99.90;;;;;;4953751;28;20059;-72
2022/03/17 00:53:48;;;;;;;8.25;6.47;;;6.90;99.90;;;;;;4964270;28;20043;-72
2022/03/17 00:56:15;;;;;;;8.13;6.25;;;6.80;99.90;;;;;;4963241;28;20486;-72
2022/03/17 00:58:45;;;;;;;8.35;5.25;;;6.80;99.90;;;;;;4952714;29;20107;-72
2022/03/17 01:01:14;;;;;;;9.68;5.15;;;6.80;99.90;;;;;;4937201;29;20055;-72
2022/03/17 01:03:42;;;;;;;6.38;4.30;;;6.70;99.90;;;;;;4952934;29;20106;-72
2022/03/17 01:06:10;;;;;;;8.27;4.05;;;6.70;99.90;;;;;;4954026;28;20090;-73
2022/03/17 01:08:37;;;;;;;8.50;4.65;;;6.70;99.90;;;;;;4952720;28;20055;-73
2022/03/17 01:11:04;;;;;;;8.13;4.75;;;6.60;99.90;;;;;;4952469;29;20051;-72
2022/03/17 01:13:31;;;;;;;7.82;4.07;;;6.60;99.90;;;;;;4954041;28;20051;-72
2022/03/17 01:15:58;;;;;;;8.65;4.30;;;6.60;99.90;;;;;;4935860;29;20056;-72
2022/03/17 01:18:25;;;;;;;8.68;4.40;;;6.60;99.90;;;;;;4936566;29;20515;-72
2022/03/17 01:20:52;;;;;;;5.18;3.72;;;6.50;99.90;;;;;;4936915;29;20051;-72
2022/03/17 01:23:19;;;;;;;8.77;5.55;;;6.50;99.90;;;;;;4960072;28;20047;-72
2022/03/17 01:25:46;;;;;;;8.10;4.63;;;6.40;99.90;;;;;;4966621;28;20059;-72
2022/03/17 01:28:13;;;;;;;8.32;4.35;;;6.40;99.90;;;;;;4953513;28;20051;-72
2022/03/17 01:30:40;;;;;;;6.05;3.50;;;6.40;99.90;;;;;;4951716;29;20055;-72
2022/03/17 01:33:08;;;;;;;5.75;3.85;;;6.30;99.90;;;;;;4952081;29;20110;-73
2022/03/17 01:35:35;;;;;;;8.73;4.18;;;6.30;99.90;;;;;;4954074;28;20059;-72
2022/03/17 01:38:02;;;;;;;6.82;3.80;;;6.30;99.90;;;;;;4952535;29;20047;-73
2022/03/17 01:40:29;;;;;;;6.50;3.53;;;6.40;99.90;;;;;;4951846;29;20095;-72
2022/03/17 01:42:56;;;;;;;7.25;3.83;;;6.40;99.90;;;;;;4953733;28;20455;-72
2022/03/17 01:45:25;;;;;;;14.45;4.75;;;6.40;99.90;;;;;;4952367;29;20051;-72
2022/03/17 01:47:52;;;;;;;6.85;3.45;;;6.50;99.90;;;;;;4936637;29;20484;-72
2022/03/17 01:50:19;;;;;;;7.20;3.75;;;6.50;99.90;;;;;;4952045;29;20047;-72
2022/03/17 01:52:47;;;;;;;5.10;3.08;;;6.50;99.90;;;;;;4938363;28;20558;-72
2022/03/17 01:55:16;;;;;;;5.15;2.92;;;6.50;99.90;;;;;;4972296;28;20412;-72
2022/03/17 01:57:44;;;;;;;9.10;3.03;;;6.50;99.90;;;;;;4936614;29;20087;-72
2022/03/17 02:00:13;;;;;;;5.82;2.80;;;6.50;99.90;;;;;;4952065;29;20414;-73
2022/03/17 02:02:43;;;;;;;;;;;6.50;99.90;;;;;;4953840;28;20047;-73
2022/03/17 02:05:11;;;;;;;6.55;2.33;;;6.50;99.90;;;;;;4952413;29;20281;-72
2022/03/17 02:07:40;;;;;;;12.85;3.30;;;6.50;99.90;;;;;;4952175;29;20051;-73
2022/03/17 02:10:07;;;;;;;6.47;2.20;;;6.50;99.90;;;;;;4953287;28;20054;-72
2022/03/17 02:15:20;;;;;;;9.70;2.83;;;6.40;99.90;;;;;;4952248;29;20058;-73
2022/03/17 02:17:47;;;;;;;6.07;3.22;;;6.30;99.90;;;;;;4952401;29;20098;-72
2022/03/17 02:20:14;;;;;;;5.13;2.70;;;6.30;99.90;;;;;;4956595;28;20105;-72
2022/03/17 02:22:46;;;;;;;7.00;3.08;;;6.20;99.90;;;;;;4957005;28;20047;-72
2022/03/17 02:27:59;;;;;;;4.65;1.90;;;6.10;99.90;;;;;;4955546;29;20050;-72
2022/03/17 02:30:26;;;;;;;7.65;2.40;;;6.00;99.90;;;;;;4955133;29;20050;-72
2022/03/17 02:33:01;;;;;;;7.70;2.40;;;5.90;99.90;;;;;;4955521;29;20051;-72
2022/03/17 02:35:29;;;;;;;5.65;2.15;;;5.90;99.90;;;;;;4956603;28;20055;-72
2022/03/17 02:37:58;;;;;;;8.95;3.58;;;5.80;99.90;;;;;;4955262;29;20047;-72
2022/03/17 02:40:28;;;;;;;6.18;2.83;;;5.80;99.90;;;;;;4956459;28;20051;-72
2022/03/17 02:42:54;;;;;;;;;;;5.70;99.90;;;;;;4955698;29;20094;-73
2022/03/17 02:45:21;;;;;;;6.68;2.25;;;5.70;99.90;;;;;;4956286;28;19922;-72
2022/03/17 02:47:48;;;;;;;4.95;2.10;;;5.60;99.90;;;;;;4956155;28;20062;-72
2022/03/17 02:50:16;;;;;;;4.05;2.05;;;5.60;99.90;;;;;;4955734;28;20066;-72
2022/03/17 02:52:43;;;;;;;5.72;2.53;;;5.50;99.90;;;;;;4956495;28;20055;-72
2022/03/17 02:55:14;;;;;;;7.40;2.75;;;5.50;99.90;;;;;;4974376;28;20494;-72
2022/03/17 02:57:43;;;;;;;3.70;2.28;;;5.50;99.90;;;;;;4955221;29;20052;-72
2022/03/17 03:00:10;;;;;;;4.43;2.00;;;5.40;99.90;;;;;;4954301;29;20055;-72
2022/03/17 03:02:38;;;;;;;7.00;2.17;;;5.40;99.90;;;;;;4938654;29;20277;-72
2022/03/17 03:05:06;;;;;;;2.90;1.95;;;5.40;99.90;;;;;;4938823;29;20521;-72
2022/03/17 03:07:34;;;;;;;11.15;3.08;;;5.30;99.90;;;;;;4956004;28;20074;-72
2022/03/17 03:10:06;;;;;;;5.82;2.35;;;5.30;99.90;;;;;;4954596;29;20055;-72
2022/03/17 03:12:33;;;;;;;6.15;2.38;;;5.30;99.90;;;;;;4955034;29;20055;-72
2022/03/17 03:15:00;;;;;;;7.35;2.03;;;5.20;99.90;;;;;;4938632;29;20066;-72
2022/03/17 03:17:27;;;;;;;5.78;2.78;;;5.20;99.90;;;;;;4954368;29;20407;-72
2022/03/17 03:19:54;;;;;;;6.97;2.63;;;5.20;99.90;;;;;;4954020;29;20499;-72
2022/03/17 03:22:22;;;;;;;4.40;2.65;;;5.10;99.90;;;;;;4954474;29;20044;-72
2022/03/17 03:24:48;;;;;;;7.45;2.60;;;5.10;99.90;;;;;;4961770;28;20467;-72
2022/03/17 03:27:18;;;;;;;5.65;2.10;;;5.00;99.90;;;;;;4954499;29;20058;-72
2022/03/17 03:29:45;;;;;;;6.22;2.42;;;5.00;99.90;;;;;;4954366;28;20486;-72
2022/03/17 03:32:12;;;;;;;5.80;2.72;;;4.90;99.90;;;;;;4953534;29;20055;-72
2022/03/17 03:34:39;;;;;;;6.00;2.65;;;4.90;99.90;;;;;;4955828;28;20104;-72
2022/03/17 03:37:25;;;;;;;6.05;2.45;;;4.90;99.90;;;;;;4953733;29;20502;-73
2022/03/17 03:39:56;;;;;;;6.55;2.33;;;4.80;99.90;;;;;;4941081;29;20487;-72
2022/03/17 03:42:24;;;;;;;4.38;2.33;;;4.80;99.90;;;;;;4939036;29;20047;-72
2022/03/17 03:44:51;;;;;;;9.05;3.72;;;4.80;99.90;;;;;;4938576;29;20049;-72
2022/03/17 03:47:21;;;;;;;4.53;2.20;;;4.70;99.90;;;;;;4953541;29;20416;-72
2022/03/17 03:49:48;;;;;;;5.60;2.83;;;4.70;99.90;;;;;;4938586;29;20066;-72
2022/03/17 03:52:17;;;;;;;7.82;2.67;;;4.70;99.90;;;;;;4955061;28;20057;-72
2022/03/17 03:54:44;;;;;;;5.95;2.95;;;4.60;99.90;;;;;;4953041;29;20426;-72
2022/03/17 03:57:10;;;;;;;7.20;2.42;;;4.60;99.90;;;;;;4954137;29;20067;-72
2022/03/17 03:59:38;;;;;;;10.23;3.35;;;4.60;99.90;;;;;;4954969;28;20051;-72
2022/03/17 04:02:07;;;;;;;6.47;3.17;;;4.50;99.90;;;;;;4953680;29;20058;-72
2022/03/17 04:04:35;;;;;;;4.88;2.30;;;4.50;99.90;;;;;;4953963;29;20047;-72
2022/03/17 04:07:06;;;;;;;6.45;3.83;;;4.50;99.90;;;;;;4922294;29;20137;-72
2022/03/17 04:09:39;;;;;;;5.13;2.85;;;4.40;99.90;;;;;;4938108;29;20054;-72
2022/03/17 04:12:11;;;;;;;7.18;2.65;;;4.40;99.90;;;;;;4953639;29;20059;-72
2022/03/17 04:14:39;;;;;;;7.53;3.78;;;4.40;99.90;;;;;;4953574;29;20063;-72
2022/03/17 04:17:06;;;;;;;5.55;2.40;;;4.30;99.90;;;;;;4921958;29;20463;-72
2022/03/17 04:19:34;;;;;;;4.55;2.30;;;4.30;99.90;;;;;;4937213;29;20059;-72
2022/03/17 04:22:00;;;;;;;7.95;3.35;;;4.30;99.90;;;;;;4954486;28;20455;-72
2022/03/17 04:24:27;;;;;;;5.28;2.63;;;4.30;99.90;;;;;;4953271;29;20051;-72
2022/03/17 04:26:54;;;;;;;5.20;2.45;;;4.20;99.90;;;;;;4954575;29;20053;-72
2022/03/17 04:29:21;;;;;;;7.18;2.97;;;4.20;99.90;;;;;;4953083;29;20054;-72
2022/03/17 04:31:49;;;;;;;6.03;2.38;;;4.10;99.90;;;;;;4954257;28;20054;-72
2022/03/17 04:34:16;;;;;;;4.63;2.35;;;4.10;99.90;;;;;;4954166;28;20047;-72
2022/03/17 04:36:43;;;;;;;5.85;2.85;;;4.00;99.90;;;;;;4954032;29;20059;-72
2022/03/17 04:39:12;;;;;;;4.50;2.20;;;3.90;99.90;;;;;;4954167;28;20059;-72
2022/03/17 04:41:39;;;;;;;;;;;3.90;99.90;;;;;;4953217;28;20043;-72
2022/03/17 04:44:07;;;;;;;4.90;2.65;;;3.80;99.90;;;;;;4953917;28;19922;-72
2022/03/17 04:46:36;;;;;;;5.45;2.42;;;3.80;99.90;;;;;;4921084;29;20051;-72
2022/03/17 04:49:03;;;;;;;5.15;3.17;;;3.70;99.90;;;;;;4953152;29;20086;-72
2022/03/17 04:51:31;;;;;;;6.20;2.75;;;3.70;99.90;;;;;;4954317;28;20051;-72
2022/03/17 04:53:58;;;;;;;3.38;2.13;;;3.80;99.90;;;;;;4952383;29;20055;-71
2022/03/17 04:56:25;;;;;;;5.13;2.20;;;3.70;99.90;;;;;;4954416;29;20051;-72
2022/03/17 04:58:53;;;;;;;9.60;2.97;;;3.70;99.90;;;;;;4954226;28;20062;-72
2022/03/17 05:01:20;;;;;;;3.53;1.90;;;3.70;99.90;;;;;;4953890;28;20055;-72
2022/03/17 05:03:47;;;;;;;6.22;2.45;;;3.60;99.90;;;;;;4953471;29;20052;-72
2022/03/17 05:06:15;;;;;;;6.28;2.35;;;3.60;99.90;;;;;;4953027;29;20122;-72
2022/03/17 05:08:42;;;;;;;7.25;3.00;;;3.60;99.90;;;;;;4952695;29;20062;-72
2022/03/17 05:11:10;;;;;;;6.68;3.10;;;3.60;99.90;;;;;;4952511;29;20102;-72
2022/03/17 05:13:39;;;;;;;7.10;2.50;;;3.60;99.90;;;;;;4952595;29;20077;-72
2022/03/17 05:16:09;;;;;;;4.60;2.03;;;3.60;99.90;;;;;;4952208;29;20554;-72
2022/03/17 05:18:36;;;;;;;3.28;2.28;;;3.60;99.90;;;;;;4937139;29;20047;-73
2022/03/17 05:21:03;;;;;;;4.65;2.10;;;3.60;99.90;;;;;;4954195;28;20086;-71
2022/03/17 05:23:31;;;;;;;5.72;2.30;;;3.60;99.90;;;;;;4952571;29;20139;-72
2022/03/17 05:25:58;;;;;;;5.90;2.05;;;3.60;99.90;;;;;;4953376;29;20133;-72
2022/03/17 05:28:26;;;;;;;4.30;2.22;;;3.50;99.90;;;;;;4952413;29;20057;-72
2022/03/17 05:30:53;;;;;;;7.75;2.42;;;3.50;99.90;;;;;;4936126;29;20051;-72
2022/03/17 05:33:21;;;;;;;10.95;3.50;;;3.50;99.90;;;;;;4953574;28;20091;-72
2022/03/17 05:35:49;;;;;;;5.65;2.42;;;3.40;99.90;;;;;;4952392;29;20059;-72
2022/03/17 05:38:16;;;;;;;5.68;2.13;;;3.40;99.90;;;;;;4952203;29;20054;-72
2022/03/17 05:40:44;;;;;;;4.15;2.03;;;3.40;99.90;;;;;;4936766;29;20078;-72
2022/03/17 05:43:11;;;;;;;6.28;2.25;;;3.40;99.90;;;;;;4968012;28;20102;-71
2022/03/17 05:45:38;;;;;;;4.68;3.42;;;3.30;99.90;;;;;;4952495;29;20106;-72
2022/03/17 05:48:06;;;;;;;7.22;2.65;;;3.30;99.90;;;;;;4920304;29;20060;-72
2022/03/17 05:50:40;;;;;;;6.03;2.17;;;3.30;99.90;;;;;;4952211;29;20138;-71
2022/03/17 05:53:07;;;;;;;5.65;2.40;;;3.30;99.90;;;;;;4935903;28;20392;-72
2022/03/17 05:55:34;;;;;;;4.05;1.92;;;3.30;99.90;;;;;;4955886;29;20495;-71
2022/03/17 05:58:01;;;;;;;2.90;2.03;;;3.30;99.90;;;;;;4956337;29;20051;-72
2022/03/17 06:00:29;;;;;;;4.60;2.20;;;3.30;99.90;;;;;;4956900;29;20047;-72
2022/03/17 06:02:57;;;;;;;4.65;2.53;;;3.20;99.90;;;;;;4955406;29;20065;-72
2022/03/17 06:05:25;;;;;;;4.85;2.20;;;3.30;99.90;;;;;;4939996;29;20134;-72
2022/03/17 06:07:54;;;;;;;2.88;2.20;;;3.20;99.90;;;;;;4956038;29;20055;-72
2022/03/17 06:10:27;;;;;;;5.10;2.23;;;3.20;99.90;;;;;;4954987;29;20062;-71
2022/03/17 06:12:54;;;;;;;6.40;2.40;;;3.20;99.90;;;;;;4957347;28;20059;-72
2022/03/17 06:15:23;;;;;;;10.77;2.75;;;3.20;99.90;;;;;;4939672;29;20059;-71
2022/03/17 06:17:52;;;;;;;4.18;1.95;;;3.20;99.90;;;;;;4955643;29;20088;-71
2022/03/17 06:20:27;;;;;;;4.50;2.35;;;3.20;99.90;;;;;;4955947;29;20047;-71
2022/03/17 06:22:55;;;;;;;4.20;2.40;;;3.10;99.90;;;;;;4942740;28;20057;-71
2022/03/17 06:25:23;;;;;;;6.05;3.15;;;3.10;99.90;;;;;;4973861;28;20051;-71
2022/03/17 06:27:50;;;;;;;6.38;2.20;;;3.10;99.90;;;;;;4956652;28;20047;-72
2022/03/17 06:30:19;;;;;;;6.38;2.10;;;3.20;99.90;;;;;;4955702;29;20047;-71
2022/03/17 06:32:46;;;;;;;6.72;2.33;;;3.20;99.90;;;;;;4955125;29;20090;-72
2022/03/17 06:35:17;;;;;;;7.30;2.60;;;3.20;99.90;;;;;;4955306;29;20059;-72
2022/03/17 06:37:45;;;;;;;6.75;2.67;;;3.20;99.90;;;;;;4955662;29;20475;-71
2022/03/17 06:40:12;;;;;;;4.53;3.03;;;3.20;99.90;;;;;;4939661;29;20043;-71
2022/03/17 06:42:39;;;;;;;4.43;2.97;;;3.30;99.90;;;;;;4939787;29;20090;-71
2022/03/17 06:45:08;;;;;;;6.55;2.85;;;3.30;99.90;;;;;;4956291;28;20051;-71
2022/03/17 06:47:35;;;;;;;5.65;2.58;;;3.30;99.90;;;;;;4938461;29;20050;-71
2022/03/17 06:50:03;;;;;;;7.57;3.55;;;3.40;99.90;;;;;;4951872;28;20410;-71
2022/03/17 06:52:29;;;;;;;3.97;2.25;;;3.40;99.90;;;;;;4949063;29;20055;-71
2022/03/17 06:54:56;;;;;;;7.40;2.67;;;3.40;99.90;;;;;;4937370;29;20055;-71
2022/03/17 06:57:23;;;;;;;8.43;2.60;;;3.50;99.90;;;;;;4954123;29;20047;-71
2022/03/17 06:59:50;;;;;;;5.13;2.35;;;3.50;99.90;;;;;;4955298;29;20051;-72
2022/03/17 07:02:17;;;;;;;8.75;2.53;;;3.50;99.90;;;;;;4954457;29;20051;-72
2022/03/17 07:04:44;;;;;;;3.25;2.40;;;3.60;99.90;;;;;;4938566;28;20059;-72
2022/03/17 07:07:11;;;;;;;5.60;2.33;;;3.60;99.90;;;;;;4954845;29;20109;-72
2022/03/17 07:09:38;;;;;;;4.30;2.08;;;3.60;99.90;;;;;;4938692;29;20110;-72
2022/03/17 07:12:06;;;;;;;5.70;2.35;;;3.70;99.90;;;;;;4956036;28;20047;-72
2022/03/17 07:14:34;;;;;;;9.18;3.10;;;3.70;99.90;;;;;;4954721;29;20063;-72
2022/03/17 07:17:01;;;;;;;11.02;5.18;;;3.70;99.90;;;;;;4955514;29;20051;-71
2022/03/17 07:19:29;;;;;;;4.32;2.42;;;3.80;99.90;;;;;;4954451;29;20090;-72
2022/03/17 07:21:57;;;;;;;5.55;2.47;;;3.80;99.90;;;;;;4955289;28;20086;-72
2022/03/17 07:24:23;;;;;;;5.13;2.58;;;3.90;99.90;;;;;;4969466;28;20046;-71
2022/03/17 07:26:50;;;;;;;9.20;3.50;;;3.90;99.90;;;;;;4961764;28;20058;-71
2022/03/17 07:29:17;;;;;;;5.93;2.83;;;4.00;99.90;;;;;;4938612;29;20055;-71
2022/03/17 07:31:44;;;;;;;5.93;2.50;;;4.00;99.90;;;;;;4954644;29;20058;-71
2022/03/17 07:34:12;;;;;;;7.63;2.92;;;4.10;99.90;;;;;;4954858;29;20070;-72
2022/03/17 07:36:40;;;;;;;5.93;3.33;;;4.10;99.90;;;;;;4955067;28;20055;-71
2022/03/17 07:39:07;;;;;;;6.00;2.55;;;4.20;99.90;;;;;;4953778;29;20051;-72
2022/03/17 07:41:34;;;;;;;6.35;3.28;;;4.30;99.90;;;;;;4955112;29;20130;-72
2022/03/17 07:44:02;;;;;;;6.78;3.22;;;4.30;99.90;;;;;;4955475;28;20110;-71
2022/03/17 07:46:29;;;;;;;10.95;2.72;;;4.40;99.90;;;;;;4953609;29;20134;-71
2022/03/17 07:48:56;;;;;;;6.68;2.72;;;4.40;99.90;;;;;;4970011;28;20077;-71
2022/03/17 07:51:22;;;;;;;7.72;2.88;;;4.40;99.90;;;;;;4954589;28;20055;-72
2022/03/17 07:53:49;;;;;;;6.63;3.30;;;4.50;99.90;;;;;;4979865;28;20054;-71
2022/03/17 07:56:17;;;;;;;6.18;2.58;;;4.60;99.90;;;;;;4964647;28;20058;-71
2022/03/17 07:58:45;;;;;;;4.35;2.08;;;4.60;99.90;;;;;;4953297;29;20058;-72
2022/03/17 08:01:12;;;;;;;8.75;3.25;;;4.70;99.90;;;;;;4953856;29;20122;-72
2022/03/17 08:03:40;;;;;;;9.50;2.97;;;4.70;99.90;;;;;;4953377;29;20102;-71
2022/03/17 08:06:07;;;;;;;7.53;2.53;;;4.80;99.90;;;;;;4953631;29;20103;-72
2022/03/17 08:08:34;;;;;;;4.82;3.05;;;4.90;99.90;;;;;;4953617;29;20061;-72
2022/03/17 08:11:01;;;;;;;8.48;2.83;;;4.90;99.90;;;;;;4954959;28;20051;-71
2022/03/17 08:13:29;;;;;;;6.78;2.70;;;5.00;99.90;;;;;;4954944;28;20059;-71
2022/03/17 08:15:55;;;;;;;10.25;2.28;;;5.10;99.90;;;;;;4952910;28;20059;-71
2022/03/17 08:18:24;;;;;;;8.48;3.10;;;5.10;99.90;;;;;;4936906;29;20051;-71
2022/03/17 08:20:51;;;;;;;4.95;2.72;;;5.20;99.90;;;;;;4954699;28;20047;-71
2022/03/17 08:23:21;;;;;;;7.32;2.22;;;5.30;99.90;;;;;;4961288;28;20069;-71
2022/03/17 08:25:50;;;;;;;9.32;3.70;;;5.40;99.90;;;;;;4968771;28;20059;-72
2022/03/17 08:28:18;;;;;;;8.77;3.55;;;5.50;99.90;;;;;;4953359;29;20487;-72
2022/03/17 08:30:46;;;;;;;7.18;2.72;;;5.50;99.90;;;;;;4952888;29;20051;-72
2022/03/17 08:33:15;;;;;;;7.95;3.28;;;5.60;99.90;;;;;;4953089;29;20062;-72
2022/03/17 08:35:42;;;;;;;9.70;4.72;;;5.60;99.90;;;;;;4953098;29;20380;-72
2022/03/17 08:38:09;;;;;;;7.80;3.70;;;5.60;99.90;;;;;;4937268;29;20047;-72
2022/03/17 08:40:38;;;;;;;6.50;3.40;;;5.70;99.90;;;;;;4937420;29;20051;-72
2022/03/17 08:43:10;;;;;;;6.00;2.83;;;5.80;99.90;;;;;;4954174;28;20055;-72
2022/03/17 08:51:09;;;;;;;5.88;2.40;;;6.00;99.90;;;;;;4939464;29;20043;-72
2022/03/17 08:53:36;;;;;;;8.83;5.10;;;6.00;99.90;;;;;;4937256;29;20378;-72
2022/03/17 08:56:04;;;;;;;5.38;2.47;;;6.00;99.90;;;;;;4951639;28;20427;-73
2022/03/17 08:58:34;;;;;;;5.80;2.63;;;6.10;99.90;;;;;;4952884;29;20055;-72
2022/03/17 09:01:01;;;;;;;6.55;2.90;;;6.20;99.90;;;;;;4954283;28;20084;-72
2022/03/17 09:03:30;;;;;;;6.82;2.70;;;6.20;99.90;;;;;;4952381;29;20061;-72
2022/03/17 09:06:00;;;;;;;7.70;2.58;;;6.30;99.90;;;;;;4937525;29;20051;-72
2022/03/17 09:08:27;;;;;;;9.63;2.95;;;6.40;99.90;;;;;;4937318;29;20399;-72
2022/03/17 09:10:55;;;;;;;9.40;2.95;;;6.40;99.90;;;;;;4952661;29;20456;-72
2022/03/17 09:13:25;;;;;;;5.35;3.05;;;6.50;99.90;;;;;;4936537;29;20134;-72
2022/03/17 09:15:54;;;;;;;13.00;2.70;;;6.60;99.90;;;;;;4951709;29;20058;-72
2022/03/17 09:18:21;;;;;;;6.43;2.47;;;6.70;99.90;;;;;;4920873;29;20423;-72
2022/03/17 09:20:48;;;;;;;9.07;3.67;;;6.70;99.90;;;;;;4937020;29;20055;-72
2022/03/17 09:23:16;;;;;;;8.40;2.55;;;6.80;99.90;;;;;;4952529;29;20130;-72
2022/03/17 09:25:43;;;;;;;8.48;2.60;;;6.80;99.90;;;;;;4952571;29;20381;-72
2022/03/17 09:28:10;;;;;;;6.97;3.20;;;6.90;99.90;;;;;;4952640;28;20055;-72
2022/03/17 09:30:37;;;;;;;8.45;3.20;;;7.00;99.90;;;;;;4956369;29;20098;-72
2022/03/17 09:33:05;;;;;;;12.48;3.08;;;7.10;99.90;;;;;;4940342;29;20058;-72
2022/03/17 09:35:34;;;;;;;10.07;2.92;;;7.10;99.90;;;;;;4957673;28;20099;-72
2022/03/17 09:38:03;;;;;;;9.80;4.05;;;7.30;99.90;;;;;;4956258;29;20079;-72
2022/03/17 09:40:30;;;;;;;6.18;2.72;;;7.30;99.90;;;;;;4957204;28;20055;-72
2022/03/17 09:45:43;;;;;;;10.98;5.00;;;7.40;99.90;;;;;;4957120;28;20086;-72
2022/03/17 09:48:11;;;;;;;5.72;3.20;;;7.50;98.80;;;;;;4957369;28;20055;-72
2022/03/17 09:50:38;;;;;;;11.15;3.03;;;7.50;99.50;;;;;;4957182;28;20066;-72
2022/03/17 09:53:08;;;;;;;9.10;2.95;;;7.60;99.60;;;;;;4955666;29;20506;-72
2022/03/17 09:55:36;;;;;;;8.75;2.75;;;7.60;99.10;;;;;;4955998;29;20059;-72
2022/03/17 09:58:04;;;;;;;5.45;2.13;;;7.70;99.60;;;;;;4957380;29;20117;-73
2022/03/17 10:00:49;;;;;;;5.35;2.00;;;7.70;98.20;;;;;;4939972;29;20411;-72
2022/03/17 10:03:25;;;;;;;6.03;2.10;;;7.70;96.90;;;;;;4955804;29;20105;-73
2022/03/17 10:05:54;;;;;;;7.10;2.72;;;7.80;95.40;;;;;;4940454;29;20487;-73
2022/03/17 10:08:23;;;;;;;8.30;3.08;;;7.90;94.80;;;;;;4956045;29;20407;-72
2022/03/17 10:10:52;;;;;;;8.82;2.80;;;7.90;94.80;;;;;;4955613;29;20048;-72
2022/03/17 10:13:25;;;;;;;5.20;2.33;;;8.00;95.30;;;;;;4940435;29;20047;-72
2022/03/17 10:16:13;;;;;;;6.22;2.38;;;8.10;95.30;;;;;;4955643;29;20052;-72
2022/03/17 10:18:40;;;;;;;13.25;2.53;;;8.10;93.60;;;;;;4939744;29;20109;-72
2022/03/17 10:21:11;;;;;;;5.15;1.85;;;8.20;94.20;;;;;;4956682;29;20051;-72
2022/03/17 10:23:55;;;;;;;6.85;1.88;;;8.30;93.20;;;;;;4964547;28;20043;-73
2022/03/17 10:26:43;;;;;;;6.63;2.88;;;8.40;92.80;;;;;;4965840;28;20051;-73
2022/03/17 10:29:11;;;;;;;7.15;2.55;;;8.50;91.90;;;;;;4955709;29;20194;-73
2022/03/17 10:31:50;;;;;;;7.65;2.35;;;8.50;93.60;;;;;;4956845;28;20058;-73
2022/03/17 10:34:21;;;;;;;8.73;2.67;;;8.50;93.70;;;;;;4955830;29;20134;-73
2022/03/17 10:36:48;;;;;;;6.03;2.40;;;8.50;93.60;;;;;;4956721;28;20055;-73
2022/03/17 10:39:15;;;;;;;7.85;2.28;;;8.50;93.20;;;;;;4956280;28;20055;-72
2022/03/17 10:41:44;;;;;;;9.00;3.60;;;8.60;92.80;;;;;;4954993;29;20150;-73
2022/03/17 10:44:12;;;;;;;4.88;2.08;;;8.80;91.70;;;;;;4955555;29;20058;-73
2022/03/17 10:46:53;;;;;;;8.60;2.78;;;8.80;91.70;;;;;;4939394;29;20047;-72
2022/03/17 10:49:19;;;;;;;5.90;2.22;;;8.80;90.70;;;;;;4939417;29;20066;-72
2022/03/17 10:51:46;;;;;;;6.43;2.50;;;8.90;91.40;;;;;;4955221;29;20498;-73
2022/03/17 10:54:15;;;;;;;6.38;2.38;;;8.90;91.60;;;;;;4955413;29;20130;-74
2022/03/17 10:56:42;;;;;;;12.40;2.53;;;8.90;90.90;;;;;;4939371;29;20048;-73
2022/03/17 10:59:10;;;;;;;5.75;1.92;;;9.00;90.80;;;;;;4939796;29;20090;-73
2022/03/17 11:01:46;;;;;;;8.88;2.15;;;9.10;90.10;;;;;;4955227;29;20078;-74
2022/03/17 11:04:14;;;;;;;9.02;4.05;;;9.20;90.40;;;;;;4970662;28;20531;-73
2022/03/17 11:06:41;;;;;;;9.40;2.60;;;9.20;90.20;;;;;;4957040;29;20074;-73
2022/03/17 11:09:08;;;;;;;7.25;1.83;;;9.20;88.90;;;;;;4989112;28;20050;-73
2022/03/17 11:11:37;;;;;;;7.63;2.08;;;9.30;87.50;;;;;;4973496;28;20082;-73
2022/03/17 11:14:09;;;;;;;8.13;2.40;;;9.30;89.40;;;;;;4973425;28;20119;-72
2022/03/17 11:16:47;;;;;;;6.43;2.10;;;9.50;88.20;;;;;;4972652;28;20107;-73
2022/03/17 11:19:17;;;;;;;7.27;1.97;;;9.50;86.90;;;;;;4969363;28;20085;-73
2022/03/17 11:21:49;;;;;;;5.70;1.80;;;9.50;85.70;;;;;;4970321;28;20053;-73
2022/03/17 11:24:20;;;;;;;7.95;2.67;;;9.50;85.50;;;;;;4959610;28;20055;-73
2022/03/17 11:26:47;;;;;;;7.93;2.45;;;9.50;85.00;;;;;;4938846;29;20059;-73
2022/03/17 11:29:22;;;;;;;6.13;2.25;;;9.50;84.80;;;;;;4922889;29;20082;-73
2022/03/17 11:31:52;;;;;;;4.65;1.85;;;9.70;86.20;;;;;;4939771;29;20487;-73
2022/03/17 11:34:38;;;;;;;5.57;2.30;;;9.60;84.20;;;;;;4954148;28;20055;-73
2022/03/17 11:37:25;;;;;;;4.63;2.30;;;9.70;84.60;;;;;;4954478;29;20455;-73
2022/03/17 11:39:54;;;;;;;4.03;1.83;;;9.80;82.90;;;;;;4954762;28;20051;-73
2022/03/17 11:42:40;;;;;;;4.53;1.90;;;9.80;84.90;;;;;;4955472;28;20286;-73
2022/03/17 11:45:10;;;;;;;3.88;1.83;;;9.80;83.50;;;;;;4955665;28;20052;-73
2022/03/17 11:47:37;;;;;;;6.82;2.78;;;9.80;84.80;;;;;;4954901;28;20505;-73
2022/03/17 11:50:38;;;;;;;6.28;2.22;;;9.80;85.40;;;;;;4941259;29;20379;-73
2022/03/17 11:53:14;;;;;;;7.18;1.70;;;9.80;84.30;;;;;;4953428;29;20055;-73
2022/03/17 11:55:41;;;;;;;6.00;2.17;;;9.80;83.40;;;;;;4954942;29;20075;-73
2022/03/17 11:58:47;;;;;;;6.15;2.40;;;9.90;85.20;;;;;;4955196;28;20110;-74
2022/03/17 12:01:48;;;;;;;7.80;2.85;;;10.00;83.20;;;;;;4953774;29;20138;-74
2022/03/17 12:04:30;;;;;;;9.32;2.88;;;10.10;82.80;;;;;;4937916;29;20130;-73
2022/03/17 12:07:11;;;;;;;6.63;2.20;;;10.30;85.90;;;;;;4954928;28;20051;-74
2022/03/17 12:09:38;;;;;;;6.88;2.72;;;10.40;84.80;;;;;;4953218;29;20863;-74
2022/03/17 12:12:25;;;;;;;5.72;2.25;;;10.50;86.50;;;;;;4953699;29;20073;-73
2022/03/17 12:14:54;;;;;;;9.75;2.75;;;10.60;85.10;;;;;;4953507;29;20054;-73
2022/03/17 12:17:25;;;;;;;5.32;2.40;;;10.60;86.00;;;;;;4937312;29;20500;-74
2022/03/17 12:20:08;;;;;;;6.43;2.97;;;10.60;85.90;;;;;;4954026;29;20058;-74
2022/03/17 12:22:43;;;;;;;7.32;2.83;;;10.60;86.80;;;;;;4955069;28;20141;-74
2022/03/17 12:25:18;;;;;;;7.95;2.58;;;10.60;86.00;;;;;;4957556;28;20138;-74
2022/03/17 12:28:01;;;;;;;9.43;3.00;;;10.70;85.60;;;;;;4953311;29;20047;-74
2022/03/17 12:30:29;;;;;;;12.10;3.22;;;10.80;83.90;;;;;;4953649;29;20047;-73
2022/03/17 12:32:57;;;;;;;9.50;2.60;;;10.90;84.80;;;;;;4954098;29;20142;-74
2022/03/17 12:35:30;;;;;;;7.00;3.05;;;11.00;84.50;;;;;;4954142;28;20055;-74
2022/03/17 12:38:09;;;;;;;6.93;2.67;;;11.00;85.30;;;;;;4937695;29;20057;-73
2022/03/17 12:40:43;;;;;;;11.90;2.78;;;11.10;85.10;;;;;;4952503;29;20106;-74
2022/03/17 12:43:17;;;;;;;4.82;2.40;;;11.30;85.20;;;;;;4938072;29;20047;-74
2022/03/17 12:45:47;;;;;;;10.30;3.05;;;11.60;83.10;;;;;;4937242;29;20047;-74
2022/03/17 12:48:14;;;;;;;6.32;2.20;;;11.80;83.80;;;;;;4953924;28;20058;-73
2022/03/17 12:50:41;;;;;;;4.93;2.08;;;11.90;82.20;;;;;;4954478;29;20750;-73
2022/03/17 12:53:09;;;;;;;4.35;2.00;;;12.00;81.80;;;;;;4959225;28;20057;-73
2022/03/17 12:55:37;;;;;;;4.63;2.13;;;12.10;80.60;;;;;;4969688;28;20091;-73
2022/03/17 12:58:12;;;;;;;5.95;1.67;;;12.10;82.20;;;;;;4954112;28;20051;-74
2022/03/17 13:00:42;;;;;;;7.85;1.65;;;12.00;80.00;;;;;;4937323;29;20070;-75
2022/03/17 13:03:18;;;;;;;5.70;2.08;;;12.10;81.20;;;;;;4953917;28;20147;-74
2022/03/17 13:08:38;;;;;;;7.78;2.15;;;12.10;76.60;;;;;;4954011;28;20051;-74
2022/03/17 13:16:56;;;;;;;3.67;1.55;;;11.80;77.00;;;;;;4952753;29;20063;-74
2022/03/17 13:19:23;;;;;;;6.85;2.42;;;11.90;78.20;;;;;;4936702;29;20059;-74
2022/03/17 13:21:51;;;;;;;7.80;2.25;;;11.90;76.60;;;;;;4951907;29;20053;-74
2022/03/17 13:24:20;;;;;;;4.80;1.80;;;11.90;77.70;;;;;;4968120;28;20046;-74
2022/03/17 13:27:00;;;;;;;8.60;2.80;;;12.10;78.00;;;;;;4943778;29;20110;-74
2022/03/17 13:29:35;;;;;;;5.10;1.85;;;12.10;75.30;;;;;;4953715;28;20440;-73